Nearby METAR Reports

 

ENCN - Kristiansand/Kje, Norway
Distance from station: N 17km
Mise à jour: 23/10/2019 16:50
partiellement nuageux
partiellement nuageux
 Wind from SO
Vent: SO 19 km/h
Température: 11°C
Point de rosée: 8°C
Humidité: 82%
Baromètre: 1012 hPa
Clouds: partiellement nuageux
Visibility: 10 km
Cloud details: partiellement nuageux 671 m
partiellement nuageux 1128 m
2019/10/23 14:50 ENCN 231450Z 22010KT 9999 SCT022 SCT037 11/08 Q1012
EKSN - Sindal Airport, Denmark
Distance from station: ESE 145km
Mise à jour: 23/10/2019 14:50
NOT Current
nuageux
nuageux
 Wind from SO
Vent: SO 24 km/h
Température: 13°C
Point de rosée: 8°C
Humidité: 72%
Baromètre: 1016 hPa
Clouds: nuageux
Visibility: 10 km
Cloud details: nuageux 1280 m
2019/10/23 12:50 EKSN 231250Z 22013KT 9999 BKN042 13/08 Q1016
 
EKYT - Alborg, Denmark
Distance from station: SE 153km
Mise à jour: 23/10/2019 16:50
nuageux
nuageux
 Wind from SSO
Vent: SSO 17 km/h
Température: 13°C
Point de rosée: 8°C
Humidité: 72%
Baromètre: 1015 hPa
Clouds: nuageux
Visibility: 10 km
Cloud details: nuageux 1219 m
2019/10/23 14:50 EKYT 231450Z AUTO 21009KT 9999 BKN040/// 13/08 Q1015
ENSN - Skien/Geiterygge, Norway
Distance from station: NE 153km
Mise à jour: 09/11/2015 09:50
NOT Current
clair
clair
 Wind from SSO
Vent: SSO 19 km/h, Rafale: 41 km/h
Température: 7°C
Wind Chill: 4°C
Point de rosée: 3°C
Humidité: 76%
Baromètre: 1000 hPa
Résumé: clair
Visibility: greater than 10 km
2015/11/09 08:50 ENSN 090850Z 20010G22KT 150V240 CAVOK 07/03 Q1000
 
ENZV - Stavanger/Sola(A, Norway
Distance from station: NO 166km
Mise à jour: 23/10/2019 16:50
nuageux
nuageux
 Wind from S
Vent: S 20 km/h
Température: 11°C
Point de rosée: 8°C
Humidité: 82%
Baromètre: 1010 hPa
Clouds: nuageux
Visibility: 10 km
Cloud details: Few Clouds 549 m
partiellement nuageux 945 m
nuageux 1311 m
2019/10/23 14:50 ENZV 231450Z 17011KT 9999 FEW018 SCT031 BKN043 11/08 Q1010 NOSIG
ENNO - Notodden, Norway
Distance from station: NNE 182km
Mise à jour: 23/10/2019 16:50
clair
clair
 Wind from SSE
Vent: SSE 6 km/h
Température: 12°C
Point de rosée: 5°C
Humidité: 63%
Baromètre: 1010 hPa
Résumé: clair
Visibility: greater than 10 km
2019/10/23 14:50 ENNO 231450Z 16003KT CAVOK 12/05 Q1010
 
ENTO - Torp (civ/Nor-Af, Norway
Distance from station: NE 183km
Mise à jour: 23/10/2019 16:50
Few Clouds
Few Clouds
 Wind from SSO
Vent: SSO 24 km/h
Température: 11°C
Point de rosée: 7°C
Humidité: 77%
Baromètre: 1011 hPa
Clouds: Few Clouds
Visibility: 10 km
Cloud details: Few Clouds 762 m
2019/10/23 14:50 ENTO 231450Z 20013KT 9999 FEW025 11/07 Q1011 NOSIG
EKKA - Karup (dan-Afb), Denmark
Distance from station: SSE 209km
Mise à jour: 23/10/2019 16:50
nuageux
nuageux
 Wind from SSO
Vent: SSO 9 km/h
Température: 13°C
Point de rosée: 8°C
Humidité: 72%
Baromètre: 1016 hPa
Clouds: nuageux
Visibility: 10 km
Cloud details: nuageux 884 m
2019/10/23 14:50 EKKA 231450Z AUTO 20005KT 9999 BKN029/// 13/08 Q1016 NOSIG
 
ENHD - Haugesund/Karmoy, Norway
Distance from station: NO 216km
Mise à jour: 23/10/2019 16:50
nuageux
nuageux
 Wind from S
Vent: S 22 km/h
Température: 12°C
Point de rosée: 8°C
Humidité: 77%
Baromètre: 1009 hPa
Clouds: nuageux
Visibility: 10 km
Cloud details: partiellement nuageux 610 m
nuageux 1280 m
2019/10/23 14:50 ENHD 231450Z 17012KT 9999 SCT020 BKN042 12/08 Q1009
ENRY - Rygge (nor-Afb), Norway
Distance from station: NE 216km
Mise à jour: 23/10/2019 16:50
Few Clouds
Few Clouds
 Wind from SSO
Vent: SSO 26 km/h
Température: 12°C
Point de rosée: 8°C
Humidité: 77%
Baromètre: 1011 hPa
Clouds: Few Clouds
Visibility: 10 km
Cloud details: Few Clouds 305 m
2019/10/23 14:50 ENRY 231450Z 21014KT 9999 FEW010 12/08 Q1011
 
ESGP - Goteborg/Save (a, Sweden
Distance from station: E 230km
Mise à jour: 02/01/2017 11:20
NOT Current
clair
clair
 Wind from calm
Vent: calme
Température: -2°C
Point de rosée: -4°C
Humidité: 86%
Baromètre: 1012 hPa
Clouds: clair
Visibility: 10 km
2017/01/02 10:20 ESGP 021020Z AUTO 00000KT 9999 NCD M02/M04 Q1012
EKVJ - Stauning Airport, Denmark
Distance from station: S 233km
Mise à jour: 23/10/2019 15:50
NOT Current
nuageux
nuageux
 Wind from SSO
Vent: SSO 9 km/h
Température: 13°C
Point de rosée: 10°C
Humidité: 82%
Baromètre: 1016 hPa
Clouds: nuageux
Visibility: 10 km
Cloud details: nuageux 1219 m
2019/10/23 13:50 EKVJ 231350Z 21005KT 9999 BKN040 13/10 Q1016
 
ENSO - Stord/Soerstokke, Norway
Distance from station: NO 246km
Mise à jour: 23/10/2019 16:20
nuageux
nuageux
 Wind from SSE
Vent: SSE 28 km/h
Température: 11°C
Point de rosée: 9°C
Humidité: 88%
Baromètre: 1009 hPa
Clouds: nuageux
Visibility: 10 km
Cloud details: partiellement nuageux 610 m
partiellement nuageux 914 m
nuageux 1341 m
2019/10/23 14:20 ENSO 231420Z 16015KT 9999 SCT020 SCT030 BKN044 11/09 Q1009
EKAH - Tirstrup (civ/Mi, Denmark
Distance from station: SE 252km
Mise à jour: 23/10/2019 16:50
couvert
couvert
 Wind from SSO
Vent: SSO 7 km/h
Température: 12°C
Point de rosée: 9°C
Humidité: 82%
Baromètre: 1017 hPa
Clouds: couvert
Visibility: 10 km
Cloud details: Few Clouds 671 m
couvert 945 m
2019/10/23 14:50 EKAH 231450Z AUTO 20004KT 150V240 9999NDV FEW022/// OVC031/// 12/09 Q1017
 
ESGT - Trollhattan (pvt, Sweden
Distance from station: E 255km
Mise à jour: 23/10/2019 16:50
couvert
couvert
 Wind from SO
Vent: SO 22 km/h
Température: 12°C
Point de rosée: 7°C
Humidité: 72%
Baromètre: 1014 hPa
Clouds: couvert
Visibility: 10 km
Cloud details: partiellement nuageux 701 m
couvert 1280 m
2019/10/23 14:50 ESGT 231450Z 22012KT 9999 SCT023 OVC042 12/07 Q1014
ESGG - Goteborg/Landvet, Sweden
Distance from station: E 257km
Mise à jour: 23/10/2019 16:50
partiellement nuageux
partiellement nuageux
 Wind from SSO
Vent: SSO 22 km/h
Température: 10°C
Wind Chill: 7°C
Point de rosée: 7°C
Humidité: 82%
Baromètre: 1015 hPa
Clouds: partiellement nuageux
Visibility: 10 km
Cloud details: Few Clouds 518 m
partiellement nuageux 1250 m
2019/10/23 14:50 ESGG 231450Z 21012KT 9999 FEW017 SCT041 10/07 Q1015
 
EKBI - Billund Airport, Denmark
Distance from station: SSE 269km
Mise à jour: 23/10/2019 16:50
nuageux
nuageux
 Wind from S
Vent: S 9 km/h
Température: 12°C
Point de rosée: 9°C
Humidité: 82%
Baromètre: 1016 hPa
Clouds: nuageux
Visibility: 10 km
Cloud details: Few Clouds 762 m
nuageux 1128 m
2019/10/23 14:50 EKBI 231450Z AUTO 19005KT 9999 FEW025/// BKN037/// 12/09 Q1016
EKHN - Horns Rev B Heli, Denmark
Distance from station: S 274km
Mise à jour: 09/08/2016 14:20
NOT Current
Few Clouds
Few Clouds
 Wind from ONO
Vent: ONO 50 km/h, Rafale: 72 km/h
Température: 14°C
Point de rosée: 10°C
Humidité: 77%
Baromètre: 1018 hPa
Clouds: Few Clouds
Visibility: 10 km
Cloud details: Few Clouds 1158 m
Few Clouds 2438 m
2016/08/09 12:20 EKHN 091220Z AUTO 29027G39KT 270V340 9999NDV FEW038/// FEW080/// 14/10 Q1018
 
ESIB - Satenas (swe-Afb, Sweden
Distance from station: E 277km
Mise à jour: 23/10/2019 16:50
nuageux
nuageux
 Wind from SO
Vent: SO 26 km/h
Température: 12°C
Point de rosée: 9°C
Humidité: 82%
Baromètre: 1014 hPa
Clouds: nuageux
Visibility: 10 km
Cloud details: partiellement nuageux 762 m
nuageux 1189 m
2019/10/23 14:50 ESIB 231450Z 23014KT 9999 SCT025 BKN039 12/09 Q1014
EKHR - Horns Rev B Heli, Denmark
Distance from station: S 282km
Mise à jour: 04/10/2016 06:20
NOT Current
clair
clair
 Wind from E
Vent: E 4 km/h
Température: 11°C
Point de rosée: -49°C
Humidité: 0%
Baromètre: 1038 hPa
Clouds: clair
Visibility: 10 km
2016/10/04 04:20 EKHR 040420Z AUTO 08002KT 9999NDV NCD 11/M49 Q1038